createdAt,value
2022-10-30T00:00:18.045Z,16.67
2022-10-30T00:01:18.165Z,16.72
2022-10-30T00:02:18.170Z,16.65
2022-10-30T00:03:18.211Z,16.65
2022-10-30T00:04:18.140Z,16.67
2022-10-30T00:05:18.172Z,16.67
2022-10-30T00:07:18.228Z,16.59
2022-10-30T00:08:18.259Z,16.57
2022-10-30T00:09:18.286Z,16.48
2022-10-30T00:10:18.313Z,16.55
2022-10-30T00:11:18.372Z,16.54
2022-10-30T00:12:18.372Z,16.52
2022-10-30T00:13:18.400Z,16.49
2022-10-30T00:14:18.426Z,16.54
2022-10-30T00:15:18.458Z,16.54
2022-10-30T00:16:18.520Z,16.48
2022-10-30T00:17:18.515Z,16.51
2022-10-30T00:18:18.544Z,16.48
2022-10-30T00:19:18.573Z,16.51
2022-10-30T00:20:18.601Z,16.45
2022-10-30T00:21:18.631Z,16.47
2022-10-30T00:22:18.657Z,16.48
2022-10-30T00:23:18.688Z,16.45
2022-10-30T00:24:18.715Z,16.49
2022-10-30T00:25:18.745Z,16.49
2022-10-30T00:26:18.773Z,16.49
2022-10-30T00:27:18.804Z,16.55
2022-10-30T00:28:18.830Z,16.54
2022-10-30T00:29:18.860Z,16.66
2022-10-30T00:30:18.899Z,16.49
2022-10-30T00:31:18.942Z,16.63
2022-10-30T00:32:18.964Z,16.59
2022-10-30T00:33:18.975Z,16.65
2022-10-30T00:34:19.004Z,16.63
2022-10-30T00:35:19.032Z,16.67
2022-10-30T00:36:19.059Z,16.62
2022-10-30T00:37:19.088Z,16.66
2022-10-30T00:38:19.116Z,16.66
2022-10-30T00:39:19.149Z,16.63
2022-10-30T00:40:19.175Z,16.67
2022-10-30T00:41:19.208Z,16.62
2022-10-30T00:42:19.235Z,16.62
2022-10-30T00:43:19.262Z,16.62
2022-10-30T00:44:19.291Z,16.65
2022-10-30T00:45:19.332Z,16.74
2022-10-30T00:46:19.346Z,16.66
2022-10-30T00:47:19.376Z,16.58
2022-10-30T00:48:19.426Z,16.73
2022-10-30T00:49:19.434Z,16.69
2022-10-30T00:50:19.547Z,16.70
2022-10-30T00:51:19.493Z,16.74
2022-10-30T00:52:19.518Z,16.74
2022-10-30T00:53:19.548Z,16.81
2022-10-30T00:54:19.676Z,16.87
2022-10-30T00:55:19.611Z,16.73
2022-10-30T00:56:19.636Z,16.85
2022-10-30T00:57:19.669Z,16.90
2022-10-30T00:58:19.692Z,16.84
2022-10-30T00:59:19.722Z,16.87
2022-10-30T01:00:19.750Z,16.77
2022-10-30T01:01:19.921Z,16.84
2022-10-30T01:02:19.940Z,16.80
2022-10-30T01:03:19.838Z,16.77
2022-10-30T01:04:19.882Z,16.82
2022-10-30T01:05:19.893Z,16.85
2022-10-30T01:06:19.920Z,16.73
2022-10-30T01:07:19.952Z,16.72
2022-10-30T01:08:20.016Z,16.80
2022-10-30T01:09:20.053Z,16.66
2022-10-30T01:10:20.040Z,16.67
2022-10-30T01:11:20.067Z,16.65
2022-10-30T01:12:20.093Z,16.65
2022-10-30T01:13:20.123Z,16.65
2022-10-30T01:14:20.150Z,16.57
2022-10-30T01:15:20.181Z,16.63
2022-10-30T01:16:20.207Z,16.47
2022-10-30T01:17:20.240Z,16.49
2022-10-30T01:18:20.264Z,16.51
2022-10-30T01:19:20.299Z,16.51
2022-10-30T01:20:20.343Z,16.52
2022-10-30T01:21:20.351Z,16.48
2022-10-30T01:22:20.377Z,16.54
2022-10-30T01:23:20.408Z,16.55
2022-10-30T01:24:20.435Z,16.49
2022-10-30T01:25:20.472Z,16.57
2022-10-30T01:26:20.491Z,16.48
2022-10-30T01:27:20.524Z,16.42
2022-10-30T01:28:20.550Z,16.44
2022-10-30T01:29:20.579Z,16.33
2022-10-30T01:30:20.607Z,16.32
2022-10-30T01:31:20.636Z,16.37
2022-10-30T01:32:20.664Z,16.25
2022-10-30T01:33:20.693Z,16.33
2022-10-30T01:34:20.720Z,16.32
2022-10-30T01:35:20.751Z,16.32
2022-10-30T01:36:20.797Z,16.25
2022-10-30T01:37:20.810Z,16.11
2022-10-30T01:38:20.835Z,16.26
2022-10-30T01:39:20.865Z,16.16
2022-10-30T01:40:20.892Z,16.17
2022-10-30T01:41:20.924Z,16.16
2022-10-30T01:42:20.949Z,16.08
2022-10-30T01:43:20.980Z,16.06
2022-10-30T01:44:21.005Z,16.07
2022-10-30T01:45:21.036Z,15.96
2022-10-30T01:46:21.067Z,16.04
2022-10-30T01:47:21.091Z,15.95
2022-10-30T01:48:21.118Z,15.91
2022-10-30T01:49:21.202Z,15.86
2022-10-30T01:50:21.176Z,15.91
2022-10-30T01:51:21.207Z,15.84
2022-10-30T01:52:21.253Z,15.83
2022-10-30T01:53:21.263Z,15.86
2022-10-30T01:54:21.289Z,15.78
2022-10-30T01:55:21.319Z,15.74
2022-10-30T01:56:21.349Z,15.71
2022-10-30T01:57:21.378Z,15.77
2022-10-30T01:58:21.402Z,15.67
2022-10-30T01:59:21.432Z,15.74
2022-10-30T02:00:21.460Z,15.68
2022-10-30T02:01:21.606Z,15.71
2022-10-30T02:02:21.740Z,15.62
2022-10-30T02:03:21.547Z,15.55
2022-10-30T02:04:21.574Z,15.62
2022-10-30T02:05:21.603Z,15.53
2022-10-30T02:06:21.631Z,15.44
2022-10-30T02:07:21.660Z,15.44
2022-10-30T02:08:21.704Z,15.47
2022-10-30T02:09:21.716Z,15.47
2022-10-30T02:10:21.745Z,15.41
2022-10-30T02:11:21.772Z,15.37
2022-10-30T02:12:21.800Z,15.31
2022-10-30T02:13:21.830Z,15.34
2022-10-30T02:14:21.856Z,15.30
2022-10-30T02:15:21.889Z,15.26
2022-10-30T02:16:21.913Z,15.23
2022-10-30T02:17:21.942Z,15.16
2022-10-30T02:18:21.968Z,15.07
2022-10-30T02:19:22.006Z,15.01
2022-10-30T02:20:22.026Z,15.02
2022-10-30T02:21:22.054Z,15.05
2022-10-30T02:22:22.177Z,15.04
2022-10-30T02:23:22.113Z,14.90
2022-10-30T02:24:22.156Z,14.87
2022-10-30T02:25:22.167Z,14.83
2022-10-30T02:26:22.194Z,14.86
2022-10-30T02:27:22.224Z,14.82
2022-10-30T02:28:22.251Z,14.87
2022-10-30T02:29:22.279Z,14.86
2022-10-30T02:30:22.308Z,14.86
2022-10-30T02:31:22.337Z,14.85
2022-10-30T02:32:22.364Z,14.82
2022-10-30T02:33:22.396Z,14.80
2022-10-30T02:34:22.418Z,14.75
2022-10-30T02:35:22.448Z,14.74
2022-10-30T02:36:22.476Z,14.74
2022-10-30T02:37:22.505Z,14.69
2022-10-30T02:38:22.530Z,14.64
2022-10-30T02:39:22.562Z,14.61
2022-10-30T02:40:22.607Z,14.60
2022-10-30T02:41:22.615Z,14.49
2022-10-30T02:42:22.642Z,14.57
2022-10-30T02:43:22.672Z,14.57
2022-10-30T02:44:22.698Z,14.56
2022-10-30T02:45:22.737Z,14.46
2022-10-30T02:46:22.755Z,14.42
2022-10-30T02:47:22.785Z,14.44
2022-10-30T02:48:22.809Z,14.49
2022-10-30T02:49:22.839Z,14.46
2022-10-30T02:50:22.867Z,14.49
2022-10-30T02:51:22.894Z,14.51
2022-10-30T02:52:22.921Z,14.44
2022-10-30T02:53:22.950Z,14.42
2022-10-30T02:54:22.979Z,14.42
2022-10-30T02:55:23.005Z,14.31
2022-10-30T02:56:23.062Z,14.36
2022-10-30T02:57:23.061Z,14.34
2022-10-30T02:58:23.087Z,14.24
2022-10-30T02:59:23.116Z,14.20
2022-10-30T03:00:23.144Z,14.24
2022-10-30T03:01:23.373Z,14.19
2022-10-30T03:02:23.297Z,14.15
2022-10-30T03:03:24.255Z,14.16
2022-10-30T03:04:23.254Z,14.12
2022-10-30T03:05:23.282Z,14.13
2022-10-30T03:06:23.322Z,14.08
2022-10-30T03:07:23.341Z,14.08
2022-10-30T03:08:23.365Z,14.02
2022-10-30T03:09:23.394Z,14.03
2022-10-30T03:10:23.420Z,14.03
2022-10-30T03:11:23.448Z,13.94
2022-10-30T03:12:23.496Z,13.88
2022-10-30T03:13:23.502Z,13.95
2022-10-30T03:14:23.534Z,14.01
2022-10-30T03:15:23.558Z,13.99
2022-10-30T03:16:23.587Z,13.94
2022-10-30T03:17:23.613Z,13.90
2022-10-30T03:18:23.657Z,13.81
2022-10-30T03:19:23.667Z,13.78
2022-10-30T03:20:23.696Z,13.78
2022-10-30T03:21:23.722Z,13.70
2022-10-30T03:22:23.749Z,13.78
2022-10-30T03:23:23.780Z,13.65
2022-10-30T03:24:23.805Z,13.68
2022-10-30T03:25:24.225Z,13.65
2022-10-30T03:26:23.860Z,13.66
2022-10-30T03:27:23.888Z,13.62
2022-10-30T03:28:23.933Z,13.50
2022-10-30T03:29:23.940Z,13.55
2022-10-30T03:30:23.968Z,13.40
2022-10-30T03:31:23.995Z,13.47
2022-10-30T03:33:24.052Z,13.39
2022-10-30T03:34:24.076Z,13.37
2022-10-30T03:35:24.110Z,13.42
2022-10-30T03:36:24.134Z,13.45
2022-10-30T03:37:24.162Z,13.44
2022-10-30T03:38:24.188Z,13.39
2022-10-30T03:39:24.216Z,13.36
2022-10-30T03:40:24.245Z,13.29
2022-10-30T03:41:24.271Z,13.27
2022-10-30T03:42:24.296Z,13.20
2022-10-30T03:43:24.324Z,13.32
2022-10-30T03:44:24.373Z,13.21
2022-10-30T03:45:24.380Z,13.20
2022-10-30T03:46:24.451Z,13.16
2022-10-30T03:47:24.433Z,13.21
2022-10-30T03:48:24.463Z,13.21
2022-10-30T03:49:24.489Z,13.16
2022-10-30T03:50:24.517Z,13.24
2022-10-30T03:51:24.542Z,13.20
2022-10-30T03:52:24.573Z,13.21
2022-10-30T03:53:24.596Z,13.20
2022-10-30T03:54:24.625Z,13.16
2022-10-30T03:55:24.651Z,13.06
2022-10-30T03:56:24.681Z,13.10
2022-10-30T03:57:24.708Z,13.07
2022-10-30T03:58:24.734Z,13.06
2022-10-30T03:59:24.760Z,13.06
2022-10-30T04:00:24.809Z,13.06
2022-10-30T04:01:24.968Z,13.02
2022-10-30T04:02:24.850Z,12.99
2022-10-30T04:03:24.870Z,12.88
2022-10-30T04:04:24.898Z,12.86
2022-10-30T04:05:24.923Z,12.96
2022-10-30T04:06:24.952Z,12.94
2022-10-30T04:07:24.979Z,12.96
2022-10-30T04:08:25.009Z,12.92
2022-10-30T04:09:25.031Z,12.88
2022-10-30T04:10:25.059Z,12.86
2022-10-30T04:11:25.158Z,12.83
2022-10-30T04:12:25.115Z,12.91
2022-10-30T04:13:25.144Z,12.91
2022-10-30T04:14:25.169Z,12.81
2022-10-30T04:15:25.195Z,12.77
2022-10-30T04:16:25.243Z,12.78
2022-10-30T04:17:25.255Z,12.77
2022-10-30T04:18:25.289Z,12.73
2022-10-30T04:19:25.303Z,12.78
2022-10-30T04:20:25.332Z,12.89
2022-10-30T04:21:25.356Z,12.74
2022-10-30T04:22:25.385Z,12.81
2022-10-30T04:23:25.420Z,12.70
2022-10-30T04:24:25.440Z,12.77
2022-10-30T04:25:25.465Z,12.80
2022-10-30T04:26:25.495Z,12.76
2022-10-30T04:27:25.520Z,12.78
2022-10-30T04:28:25.546Z,12.77
2022-10-30T04:29:25.572Z,12.69
2022-10-30T04:30:25.601Z,12.81
2022-10-30T04:31:25.629Z,12.69
2022-10-30T04:32:25.682Z,12.70
2022-10-30T04:33:25.685Z,12.74
2022-10-30T04:34:25.711Z,12.69
2022-10-30T04:35:25.735Z,12.70
2022-10-30T04:36:25.765Z,12.73
2022-10-30T04:37:25.789Z,12.69
2022-10-30T04:38:25.820Z,12.65
2022-10-30T04:39:25.843Z,12.70
2022-10-30T04:40:25.873Z,12.69
2022-10-30T04:41:25.898Z,12.70
2022-10-30T04:42:25.926Z,12.71
2022-10-30T04:43:25.951Z,12.59
2022-10-30T04:44:25.992Z,12.63
2022-10-30T04:45:26.007Z,12.63
2022-10-30T04:46:26.033Z,12.55
2022-10-30T04:47:26.117Z,12.62
2022-10-30T04:48:26.107Z,12.56
2022-10-30T04:49:26.113Z,12.58
2022-10-30T04:50:26.142Z,12.53
2022-10-30T04:51:26.167Z,12.61
2022-10-30T04:52:26.197Z,12.58
2022-10-30T04:53:26.222Z,12.55
2022-10-30T04:54:26.249Z,12.52
2022-10-30T04:55:26.274Z,12.56
2022-10-30T04:56:26.303Z,12.40
2022-10-30T04:57:26.329Z,12.43
2022-10-30T04:58:26.356Z,12.38
2022-10-30T04:59:26.380Z,12.41
2022-10-30T05:00:26.410Z,12.36
2022-10-30T05:01:26.552Z,12.44
2022-10-30T05:02:26.639Z,12.40
2022-10-30T05:03:26.489Z,12.44
2022-10-30T05:04:26.536Z,12.44
2022-10-30T05:05:26.541Z,12.37
2022-10-30T05:06:26.572Z,12.41
2022-10-30T05:07:26.596Z,12.36
2022-10-30T05:08:26.626Z,12.38
2022-10-30T05:09:26.648Z,12.34
2022-10-30T05:10:26.678Z,12.34
2022-10-30T05:11:26.702Z,12.29
2022-10-30T05:12:26.732Z,12.26
2022-10-30T05:13:26.755Z,12.23
2022-10-30T05:14:26.784Z,12.28
2022-10-30T05:15:26.825Z,12.37
2022-10-30T05:16:26.838Z,12.20
2022-10-30T05:17:26.883Z,12.22
2022-10-30T05:18:26.891Z,12.29
2022-10-30T05:19:26.915Z,12.22
2022-10-30T05:20:27.114Z,12.26
2022-10-30T05:21:26.975Z,12.36
2022-10-30T05:22:26.999Z,12.25
2022-10-30T05:23:27.022Z,12.28
2022-10-30T05:24:27.050Z,12.23
2022-10-30T05:25:27.075Z,12.18
2022-10-30T05:26:27.105Z,12.18
2022-10-30T05:27:27.134Z,12.13
2022-10-30T05:28:27.157Z,12.11
2022-10-30T05:29:27.180Z,12.13
2022-10-30T05:30:27.210Z,12.10
2022-10-30T05:31:27.245Z,12.13
2022-10-30T05:32:27.262Z,12.15
2022-10-30T05:33:27.289Z,12.11
2022-10-30T05:34:27.318Z,12.05
2022-10-30T05:35:27.341Z,12.07
2022-10-30T05:36:27.388Z,11.98
2022-10-30T05:37:27.394Z,12.03
2022-10-30T05:38:27.422Z,12.01
2022-10-30T05:39:27.450Z,12.03
2022-10-30T05:40:27.475Z,11.89
2022-10-30T05:41:27.500Z,11.95
2022-10-30T05:42:27.527Z,11.97
2022-10-30T05:43:27.555Z,11.94
2022-10-30T05:44:40.746Z,11.94
2022-10-30T05:45:27.605Z,11.98
2022-10-30T05:46:27.633Z,12.01
2022-10-30T05:47:27.660Z,11.97
2022-10-30T05:48:27.687Z,11.98
2022-10-30T05:49:27.713Z,11.97
2022-10-30T05:50:27.742Z,12.01
2022-10-30T05:51:27.767Z,11.91
2022-10-30T05:52:27.812Z,12.03
2022-10-30T05:53:27.826Z,11.98
2022-10-30T05:54:27.847Z,12.13
2022-10-30T05:55:27.886Z,11.97
2022-10-30T05:56:27.917Z,12.03
2022-10-30T05:57:27.923Z,12.05
2022-10-30T05:58:27.952Z,11.98
2022-10-30T05:59:27.980Z,11.94
2022-10-30T06:00:28.007Z,11.95
2022-10-30T06:01:28.168Z,12.04
2022-10-30T06:02:28.121Z,12.00
2022-10-30T06:03:28.083Z,12.08
2022-10-30T06:04:28.114Z,12.04
2022-10-30T06:05:28.135Z,12.03
2022-10-30T06:06:28.165Z,12.07
2022-10-30T06:07:28.196Z,12.08
2022-10-30T06:08:28.243Z,12.01
2022-10-30T06:09:28.241Z,12.05
2022-10-30T06:10:28.273Z,12.07
2022-10-30T06:11:28.295Z,12.05
2022-10-30T06:12:28.322Z,12.05
2022-10-30T06:13:28.347Z,12.07
2022-10-30T06:14:28.377Z,12.07
2022-10-30T06:15:28.401Z,12.08
2022-10-30T06:16:28.464Z,12.03
2022-10-30T06:17:28.454Z,12.01
2022-10-30T06:18:28.494Z,12.03
2022-10-30T06:19:28.514Z,11.95
2022-10-30T06:20:28.554Z,11.97
2022-10-30T06:21:28.591Z,12.01
2022-10-30T06:22:28.601Z,11.97
2022-10-30T06:23:28.622Z,11.86
2022-10-30T06:24:28.677Z,11.95
2022-10-30T06:25:28.687Z,12.05
2022-10-30T06:26:28.709Z,12.01
2022-10-30T06:27:28.739Z,12.07
2022-10-30T06:28:28.749Z,12.04
2022-10-30T06:29:28.770Z,12.04
2022-10-30T06:30:28.800Z,12.01
2022-10-30T06:31:28.828Z,12.00
2022-10-30T06:32:28.854Z,12.03
2022-10-30T06:33:28.881Z,12.03
2022-10-30T06:34:28.912Z,12.07
2022-10-30T06:35:28.935Z,12.03
2022-10-30T06:36:28.960Z,12.05
2022-10-30T06:37:28.986Z,12.05
2022-10-30T06:38:29.013Z,12.05
2022-10-30T06:39:29.041Z,12.08
2022-10-30T06:40:29.085Z,12.01
2022-10-30T06:41:30.415Z,12.08
2022-10-30T06:42:29.118Z,11.97
2022-10-30T06:43:29.143Z,11.95
2022-10-30T06:44:29.172Z,12.10
2022-10-30T06:45:29.197Z,11.94
2022-10-30T06:46:33.472Z,11.91
2022-10-30T06:47:29.249Z,12.08
2022-10-30T06:48:29.278Z,11.89
2022-10-30T06:49:29.303Z,11.89
2022-10-30T06:50:29.334Z,11.98
2022-10-30T06:51:29.356Z,12.03
2022-10-30T06:52:29.384Z,12.03
2022-10-30T06:53:29.408Z,12.05
2022-10-30T06:54:29.442Z,11.98
2022-10-30T06:55:29.462Z,12.05
2022-10-30T06:57:29.534Z,12.15
2022-10-30T06:58:29.538Z,12.16
2022-10-30T06:59:29.567Z,12.10
2022-10-30T07:00:29.672Z,12.13
2022-10-30T07:01:29.701Z,12.20
2022-10-30T07:02:29.751Z,12.16
2022-10-30T07:03:29.674Z,12.25
2022-10-30T07:04:29.698Z,12.19
2022-10-30T07:05:29.726Z,12.25
2022-10-30T07:06:29.752Z,12.25
2022-10-30T07:07:29.784Z,12.22
2022-10-30T07:08:29.806Z,12.19
2022-10-30T07:09:29.836Z,12.28
2022-10-30T07:10:29.994Z,12.26
2022-10-30T07:11:29.890Z,12.33
2022-10-30T07:12:29.916Z,12.38
2022-10-30T07:13:30.171Z,12.44
2022-10-30T07:14:29.976Z,12.44
2022-10-30T07:15:30.114Z,12.47
2022-10-30T07:16:30.223Z,12.44
2022-10-30T07:17:30.048Z,12.51
2022-10-30T07:18:30.081Z,12.59
2022-10-30T07:20:30.341Z,12.66
2022-10-30T07:21:30.155Z,12.63
2022-10-30T07:22:30.184Z,12.73
2022-10-30T07:23:30.209Z,12.80
2022-10-30T07:26:04.369Z,12.80
2022-10-30T07:27:30.319Z,12.88
2022-10-30T07:28:30.349Z,12.84
2022-10-30T07:29:30.389Z,12.83
2022-10-30T07:30:30.400Z,12.92
2022-10-30T07:31:41.876Z,12.92
2022-10-30T07:32:30.452Z,12.86
2022-10-30T07:33:30.479Z,13.01
2022-10-30T07:34:30.506Z,13.02
2022-10-30T07:35:30.534Z,13.11
2022-10-30T07:36:30.563Z,13.01
2022-10-30T07:37:30.588Z,13.07
2022-10-30T07:38:30.617Z,13.14
2022-10-30T07:39:30.647Z,13.14
2022-10-30T07:40:30.672Z,13.25
2022-10-30T07:41:30.698Z,13.21
2022-10-30T07:42:30.725Z,13.29
2022-10-30T07:43:30.753Z,13.35
2022-10-30T07:45:30.826Z,13.50
2022-10-30T07:46:30.838Z,13.65
2022-10-30T07:47:31.063Z,13.69
2022-10-30T07:48:30.903Z,13.73
2022-10-30T07:50:31.156Z,14.11
2022-10-30T07:51:30.974Z,14.08
2022-10-30T07:52:30.998Z,14.24
2022-10-30T07:53:31.231Z,14.27
2022-10-30T07:54:31.054Z,14.26
2022-10-30T07:55:31.083Z,14.23
2022-10-30T07:56:31.110Z,14.27
2022-10-30T07:57:31.140Z,14.36
2022-10-30T07:58:31.167Z,14.33
2022-10-30T07:59:31.195Z,14.45
2022-10-30T08:00:31.219Z,14.45
2022-10-30T08:01:31.408Z,14.59
2022-10-30T08:02:31.449Z,14.61
2022-10-30T08:03:31.302Z,14.74
2022-10-30T08:04:31.330Z,14.70
2022-10-30T08:05:31.359Z,14.75
2022-10-30T08:06:31.385Z,14.79
2022-10-30T08:07:31.411Z,14.87
2022-10-30T08:08:31.442Z,14.90
2022-10-30T08:09:31.467Z,15.00
2022-10-30T08:10:31.497Z,15.16
2022-10-30T08:11:31.521Z,15.25
2022-10-30T08:12:31.552Z,15.30
2022-10-30T08:13:31.579Z,15.30
2022-10-30T08:14:31.606Z,15.33
2022-10-30T08:15:31.632Z,15.41
2022-10-30T08:16:31.661Z,15.44
2022-10-30T08:17:31.705Z,15.49
2022-10-30T08:18:31.716Z,15.56
2022-10-30T08:19:31.742Z,15.60
2022-10-30T08:20:31.776Z,15.78
2022-10-30T08:21:31.799Z,15.86
2022-10-30T08:22:31.827Z,15.81
2022-10-30T08:23:31.853Z,16.00
2022-10-30T08:24:31.882Z,16.00
2022-10-30T08:25:31.921Z,15.99
2022-10-30T08:26:31.937Z,16.10
2022-10-30T08:27:31.964Z,16.06
2022-10-30T08:28:33.101Z,16.16
2022-10-30T08:29:32.021Z,16.13
2022-10-30T08:30:32.052Z,16.25
2022-10-30T08:31:32.077Z,16.22
2022-10-30T08:32:32.105Z,16.34
2022-10-30T08:33:32.151Z,16.39
2022-10-30T08:34:32.163Z,16.55
2022-10-30T08:35:32.217Z,16.49
2022-10-30T08:36:32.219Z,16.52
2022-10-30T08:37:32.245Z,16.54
2022-10-30T08:38:32.276Z,16.63
2022-10-30T08:39:32.303Z,16.63
2022-10-30T08:40:32.331Z,16.76
2022-10-30T08:41:32.357Z,16.72
2022-10-30T08:42:32.387Z,16.80
2022-10-30T08:43:32.417Z,16.80
2022-10-30T08:44:32.444Z,16.85
2022-10-30T08:45:32.470Z,16.85
2022-10-30T08:46:32.502Z,16.85
2022-10-30T08:47:32.530Z,16.91
2022-10-30T08:48:32.557Z,16.92
2022-10-30T08:49:32.603Z,16.97
2022-10-30T08:50:32.614Z,16.95
2022-10-30T08:51:32.641Z,16.88
2022-10-30T08:52:32.672Z,16.87
2022-10-30T08:53:32.705Z,16.87
2022-10-30T08:54:32.729Z,16.99
2022-10-30T08:55:32.759Z,16.91
2022-10-30T08:56:32.789Z,16.95
2022-10-30T08:57:32.813Z,17.00
2022-10-30T08:58:32.844Z,17.02
2022-10-30T08:59:32.886Z,17.03
2022-10-30T09:00:32.906Z,17.03
2022-10-30T09:01:33.157Z,17.06
2022-10-30T09:02:33.147Z,17.00
2022-10-30T09:03:32.987Z,17.06
2022-10-30T09:04:33.017Z,17.07
2022-10-30T09:05:33.063Z,16.99
2022-10-30T09:06:33.079Z,17.10
2022-10-30T09:07:33.104Z,17.00
2022-10-30T09:08:33.133Z,17.17
2022-10-30T09:09:33.160Z,17.07
2022-10-30T09:10:33.191Z,17.20
2022-10-30T09:11:33.219Z,17.24
2022-10-30T09:12:33.248Z,17.24
2022-10-30T09:13:33.274Z,17.24
2022-10-30T09:14:33.304Z,17.40
2022-10-30T09:15:33.330Z,17.35
2022-10-30T09:16:33.363Z,17.38
2022-10-30T09:17:33.390Z,17.30
2022-10-30T09:18:33.420Z,17.39
2022-10-30T09:19:33.453Z,17.38
2022-10-30T09:20:33.477Z,17.49
2022-10-30T09:21:33.522Z,17.49
2022-10-30T09:22:33.536Z,17.50
2022-10-30T09:23:33.562Z,17.49
2022-10-30T09:24:33.590Z,17.54
2022-10-30T09:25:33.618Z,17.63
2022-10-30T09:26:33.650Z,17.60
2022-10-30T09:27:33.678Z,17.60
2022-10-30T09:28:33.708Z,17.76
2022-10-30T09:29:33.735Z,17.76
2022-10-30T09:30:33.767Z,17.86
2022-10-30T09:31:33.796Z,17.88
2022-10-30T09:32:33.825Z,17.88
2022-10-30T09:33:33.849Z,17.95
2022-10-30T09:34:33.890Z,17.96
2022-10-30T09:35:33.909Z,17.98
2022-10-30T09:36:33.940Z,17.95
2022-10-30T09:37:33.984Z,18.06
2022-10-30T09:38:33.995Z,18.10
2022-10-30T09:39:34.026Z,18.10
2022-10-30T09:40:34.053Z,18.19
2022-10-30T09:41:34.081Z,18.14
2022-10-30T09:42:34.111Z,18.24
2022-10-30T09:43:34.138Z,18.29
2022-10-30T09:44:34.172Z,18.26
2022-10-30T09:45:34.194Z,18.29
2022-10-30T09:46:34.227Z,18.47
2022-10-30T09:47:34.256Z,18.51
2022-10-30T09:48:34.290Z,18.54
2022-10-30T09:49:34.312Z,18.53
2022-10-30T09:50:37.242Z,18.56
2022-10-30T09:51:34.372Z,18.59
2022-10-30T09:52:34.400Z,18.65
2022-10-30T09:53:34.445Z,18.61
2022-10-30T09:54:34.457Z,18.74
2022-10-30T09:55:34.492Z,18.81
2022-10-30T09:56:34.519Z,18.76
2022-10-30T09:57:34.542Z,18.87
2022-10-30T09:58:34.574Z,18.90
2022-10-30T09:59:34.601Z,18.91
2022-10-30T10:00:34.633Z,18.97
2022-10-30T10:02:34.940Z,19.02
2022-10-30T10:03:34.719Z,19.10
2022-10-30T10:04:34.749Z,19.23
2022-10-30T10:05:34.783Z,19.17
2022-10-30T10:06:34.807Z,19.28
2022-10-30T10:07:34.838Z,19.30
2022-10-30T10:08:34.867Z,19.34
2022-10-30T10:09:35.039Z,19.40
2022-10-30T10:10:34.922Z,19.40
2022-10-30T10:11:34.955Z,19.46
2022-10-30T10:12:34.985Z,19.49
2022-10-30T10:13:35.014Z,19.53
2022-10-30T10:14:35.045Z,19.56
2022-10-30T10:15:35.073Z,19.61
2022-10-30T10:16:35.104Z,19.71
2022-10-30T10:17:35.136Z,19.72
2022-10-30T10:18:35.176Z,19.75
2022-10-30T10:19:35.191Z,19.74
2022-10-30T10:20:35.221Z,19.74
2022-10-30T10:21:35.251Z,19.82
2022-10-30T10:22:35.277Z,19.83
2022-10-30T10:23:35.310Z,19.85
2022-10-30T10:24:35.338Z,19.92
2022-10-30T10:25:35.386Z,19.98
2022-10-30T10:26:35.396Z,19.92
2022-10-30T10:27:35.427Z,20.02
2022-10-30T10:28:36.802Z,20.01
2022-10-30T10:29:35.487Z,20.08
2022-10-30T10:30:35.516Z,20.05
2022-10-30T10:31:35.547Z,20.12
2022-10-30T10:32:35.574Z,20.16
2022-10-30T10:33:35.606Z,20.26
2022-10-30T10:34:35.646Z,20.16
2022-10-30T10:35:35.665Z,20.25
2022-10-30T10:36:35.696Z,20.23
2022-10-30T10:37:35.723Z,20.27
2022-10-30T10:38:35.754Z,20.40
2022-10-30T10:39:35.786Z,20.37
2022-10-30T10:40:35.813Z,20.32
2022-10-30T10:41:35.861Z,20.40
2022-10-30T10:42:35.874Z,20.40
2022-10-30T10:43:35.904Z,20.32
2022-10-30T10:44:35.934Z,20.41
2022-10-30T10:45:35.963Z,20.44
2022-10-30T10:46:35.993Z,20.40
2022-10-30T10:47:36.027Z,20.46
2022-10-30T10:48:36.053Z,20.56
2022-10-30T10:49:39.215Z,20.58
2022-10-30T10:50:36.113Z,20.57
2022-10-30T10:51:36.146Z,20.61
2022-10-30T10:52:36.174Z,20.57
2022-10-30T10:53:36.203Z,20.63
2022-10-30T10:54:36.232Z,20.66
2022-10-30T10:55:36.298Z,20.68
2022-10-30T10:56:36.295Z,20.72
2022-10-30T10:57:36.343Z,20.72
2022-10-30T10:58:36.354Z,20.71
2022-10-30T10:59:36.385Z,20.75
2022-10-30T11:00:36.412Z,20.82
2022-10-30T11:01:36.568Z,20.79
2022-10-30T11:02:36.605Z,20.81
2022-10-30T11:03:36.505Z,20.79
2022-10-30T11:04:36.533Z,20.91
2022-10-30T11:05:36.564Z,21.03
2022-10-30T11:06:36.594Z,21.04
2022-10-30T11:07:36.626Z,21.11
2022-10-30T11:08:36.655Z,21.21
2022-10-30T11:09:36.686Z,21.12
2022-10-30T11:10:36.712Z,21.18
2022-10-30T11:11:36.748Z,21.13
2022-10-30T11:12:36.802Z,21.13
2022-10-30T11:13:36.824Z,21.18
2022-10-30T11:14:36.836Z,21.28
2022-10-30T11:15:36.866Z,21.30
2022-10-30T11:16:36.900Z,21.41
2022-10-30T11:17:39.549Z,21.41
2022-10-30T11:18:36.955Z,21.46
2022-10-30T11:19:36.987Z,21.53
2022-10-30T11:20:37.019Z,21.58
2022-10-30T11:21:37.051Z,21.55
2022-10-30T11:22:37.078Z,21.64
2022-10-30T11:23:37.115Z,21.58
2022-10-30T11:24:37.139Z,21.71
2022-10-30T11:25:37.174Z,21.67
2022-10-30T11:26:37.199Z,21.61
2022-10-30T11:27:37.231Z,21.76
2022-10-30T11:28:37.260Z,21.76
2022-10-30T11:29:37.309Z,21.83
2022-10-30T11:30:37.323Z,21.85
2022-10-30T11:31:37.354Z,21.86
2022-10-30T11:32:37.438Z,21.96
2022-10-30T11:33:37.414Z,21.90
2022-10-30T11:34:37.446Z,21.89
2022-10-30T11:35:37.477Z,22.00
2022-10-30T11:36:37.506Z,22.02
2022-10-30T11:37:37.537Z,22.08
2022-10-30T11:38:37.567Z,22.14
2022-10-30T11:39:37.601Z,22.16
2022-10-30T11:40:37.629Z,22.22
2022-10-30T11:41:37.678Z,22.26
2022-10-30T11:42:37.690Z,22.24
2022-10-30T11:43:37.722Z,22.30
2022-10-30T11:44:37.771Z,22.29
2022-10-30T11:45:37.804Z,22.27
2022-10-30T11:46:37.813Z,22.26
2022-10-30T11:47:37.851Z,22.29
2022-10-30T11:48:37.874Z,22.27
2022-10-30T11:49:37.906Z,22.31
2022-10-30T11:50:37.936Z,22.31
2022-10-30T11:51:38.053Z,22.33
2022-10-30T11:52:37.999Z,22.46
2022-10-30T11:53:38.028Z,22.38
2022-10-30T11:54:38.059Z,22.46
2022-10-30T11:55:38.091Z,22.45
2022-10-30T11:56:38.121Z,22.45
2022-10-30T11:57:38.155Z,22.41
2022-10-30T11:58:38.183Z,22.55
2022-10-30T11:59:38.216Z,22.54
2022-10-30T12:00:38.245Z,22.51
2022-10-30T12:01:38.353Z,22.51
2022-10-30T12:03:38.341Z,22.51
2022-10-30T12:04:38.368Z,22.52
2022-10-30T12:05:38.402Z,22.59
2022-10-30T12:06:38.431Z,22.57
2022-10-30T12:07:38.466Z,22.49
2022-10-30T12:08:38.497Z,22.59
2022-10-30T12:09:38.574Z,22.52
2022-10-30T12:10:38.555Z,22.64
2022-10-30T12:11:38.588Z,22.57
2022-10-30T12:12:38.637Z,22.60
2022-10-30T12:13:38.653Z,22.64
2022-10-30T12:14:38.679Z,22.61
2022-10-30T12:15:38.712Z,22.61
2022-10-30T12:16:38.741Z,22.66
2022-10-30T12:17:38.791Z,22.59
2022-10-30T12:18:38.802Z,22.63
2022-10-30T12:19:38.834Z,22.64
2022-10-30T12:20:38.862Z,22.63
2022-10-30T12:21:38.895Z,22.64
2022-10-30T12:22:38.926Z,22.60
2022-10-30T12:23:38.959Z,22.63
2022-10-30T12:24:38.989Z,22.67
2022-10-30T12:25:39.019Z,22.69
2022-10-30T12:26:39.052Z,22.78
2022-10-30T12:27:39.082Z,22.73
2022-10-30T12:28:39.114Z,22.76
2022-10-30T12:30:06.813Z,22.73
2022-10-30T12:30:39.176Z,22.75
2022-10-30T12:31:39.205Z,22.82
2022-10-30T12:32:39.679Z,22.86
2022-10-30T12:33:39.285Z,22.79
2022-10-30T12:34:39.300Z,22.73
2022-10-30T12:35:39.329Z,22.82
2022-10-30T12:36:39.363Z,22.75
2022-10-30T12:37:39.392Z,22.75
2022-10-30T12:38:39.425Z,22.86
2022-10-30T12:39:39.457Z,22.79
2022-10-30T12:40:39.487Z,22.89
2022-10-30T12:41:39.515Z,22.89
2022-10-30T12:42:39.548Z,22.88
2022-10-30T12:43:39.578Z,22.94
2022-10-30T12:44:39.613Z,22.91
2022-10-30T12:45:39.642Z,22.91
2022-10-30T12:46:39.677Z,22.91
2022-10-30T12:47:39.708Z,22.94
2022-10-30T12:48:39.739Z,22.89
2022-10-30T12:49:39.785Z,22.91
2022-10-30T12:50:39.801Z,22.85
2022-10-30T12:51:39.832Z,22.96
2022-10-30T12:52:39.866Z,23.01
2022-10-30T12:53:39.892Z,23.03
2022-10-30T12:54:39.923Z,23.14
2022-10-30T12:55:39.956Z,23.07
2022-10-30T12:56:39.988Z,23.12
2022-10-30T12:57:40.017Z,23.06
2022-10-30T12:58:40.053Z,23.18
2022-10-30T12:59:40.079Z,23.18
2022-10-30T13:00:40.113Z,23.24
2022-10-30T13:01:40.286Z,23.29
2022-10-30T13:02:40.174Z,23.29